createdAt,value
2022-12-18T00:01:24.412Z,82.73
2022-12-18T00:03:53.119Z,82.77
2022-12-18T00:06:21.248Z,82.47
2022-12-18T00:08:48.934Z,82.59
2022-12-18T00:11:18.993Z,82.91
2022-12-18T00:13:46.942Z,82.50
2022-12-18T00:16:16.996Z,82.29
2022-12-18T00:18:44.794Z,82.75
2022-12-18T00:21:13.798Z,82.37
2022-12-18T00:23:43.218Z,82.35
2022-12-18T00:26:16.711Z,82.20
2022-12-18T00:28:44.713Z,82.63
2022-12-18T00:31:14.612Z,82.47
2022-12-18T00:33:42.293Z,82.45
2022-12-18T00:36:15.808Z,82.53
2022-12-18T00:38:43.683Z,82.53
2022-12-18T00:41:12.811Z,82.63
2022-12-18T00:43:41.369Z,82.33
2022-12-18T00:46:09.028Z,82.17
2022-12-18T00:48:37.008Z,82.50
2022-12-18T00:51:04.848Z,82.52
2022-12-18T00:53:32.400Z,82.65
2022-12-18T00:55:59.966Z,82.33
2022-12-18T00:58:27.059Z,82.82
2022-12-18T01:00:54.866Z,83.08
2022-12-18T01:03:22.115Z,82.94
2022-12-18T01:05:49.461Z,83.12
2022-12-18T01:08:16.974Z,83.05
2022-12-18T01:10:44.577Z,83.30
2022-12-18T01:13:12.834Z,83.12
2022-12-18T01:15:40.230Z,82.93
2022-12-18T01:18:08.417Z,82.85
2022-12-18T01:20:35.838Z,82.92
2022-12-18T01:23:02.983Z,83.09
2022-12-18T01:25:30.843Z,82.99
2022-12-18T01:27:58.291Z,82.78
2022-12-18T01:30:26.759Z,83.07
2022-12-18T01:32:54.135Z,83.05
2022-12-18T01:35:21.734Z,83.05
2022-12-18T01:37:49.290Z,82.91
2022-12-18T01:40:16.994Z,82.86
2022-12-18T01:42:44.854Z,82.54
2022-12-18T01:45:15.444Z,82.70
2022-12-18T01:47:49.858Z,82.80
2022-12-18T01:50:17.704Z,82.31
2022-12-18T01:52:47.773Z,82.71
2022-12-18T01:55:18.028Z,82.48
2022-12-18T01:57:46.444Z,82.14
2022-12-18T02:00:19.933Z,82.27
2022-12-18T02:02:48.207Z,82.55
2022-12-18T02:05:18.782Z,82.68
2022-12-18T02:07:58.009Z,82.77
2022-12-18T02:10:51.875Z,82.34
2022-12-18T02:13:26.877Z,82.27
2022-12-18T02:16:18.987Z,82.54
2022-12-18T02:18:50.797Z,83.13
2022-12-18T02:21:27.727Z,83.28
2022-12-18T02:23:58.885Z,83.83
2022-12-18T02:26:35.886Z,83.95
2022-12-18T02:29:10.024Z,84.06
2022-12-18T02:31:43.891Z,83.63
2022-12-18T02:34:12.846Z,83.35
2022-12-18T02:36:42.650Z,83.61
2022-12-18T02:39:12.895Z,83.14
2022-12-18T02:41:41.059Z,83.21
2022-12-18T02:44:12.482Z,82.95
2022-12-18T02:46:46.479Z,82.89
2022-12-18T02:49:13.903Z,83.12
2022-12-18T02:52:02.450Z,83.17
2022-12-18T02:54:38.903Z,82.99
2022-12-18T02:57:33.486Z,83.13
2022-12-18T03:00:12.754Z,83.14
2022-12-18T03:03:08.922Z,83.16
2022-12-18T03:05:45.045Z,83.40
2022-12-18T03:08:18.663Z,83.55
2022-12-18T03:11:13.075Z,83.18
2022-12-18T03:13:49.491Z,83.43
2022-12-18T03:16:20.068Z,83.20
2022-12-18T03:18:56.893Z,83.27
2022-12-18T03:21:33.915Z,83.31
2022-12-18T03:24:02.377Z,83.21
2022-12-18T03:26:30.919Z,83.10
2022-12-18T03:29:01.932Z,83.27
2022-12-18T03:31:30.865Z,83.47
2022-12-18T03:34:10.935Z,82.68
2022-12-18T03:36:38.509Z,82.92
2022-12-18T03:39:06.055Z,83.38
2022-12-18T03:41:48.925Z,83.06
2022-12-18T03:44:22.929Z,82.90
2022-12-18T03:47:15.071Z,83.14
2022-12-18T03:50:09.587Z,83.34
2022-12-18T03:52:52.281Z,83.29
2022-12-18T03:55:21.077Z,83.79
2022-12-18T03:57:50.177Z,83.94
2022-12-18T04:00:18.957Z,84.23
2022-12-18T04:02:51.084Z,83.71
2022-12-18T04:05:20.083Z,83.83
2022-12-18T04:07:49.805Z,83.21
2022-12-18T04:10:18.085Z,83.45
2022-12-18T04:12:45.963Z,83.41
2022-12-18T04:15:14.090Z,82.95
2022-12-18T04:17:50.968Z,83.00
2022-12-18T04:20:18.995Z,83.45
2022-12-18T04:22:46.972Z,83.18
2022-12-18T04:25:15.540Z,83.42
2022-12-18T04:27:43.099Z,83.37
2022-12-18T04:30:11.817Z,83.47
2022-12-18T04:32:39.547Z,83.24
2022-12-18T04:35:11.817Z,83.66
2022-12-18T04:37:39.104Z,83.22
2022-12-18T04:40:07.555Z,83.50
2022-12-18T04:42:35.152Z,83.21
2022-12-18T04:45:03.113Z,82.81
2022-12-18T04:47:30.987Z,83.19
2022-12-18T04:49:58.483Z,82.99
2022-12-18T04:52:26.107Z,83.28
2022-12-18T04:54:53.987Z,83.46
2022-12-18T04:57:21.994Z,83.42
2022-12-18T04:59:49.268Z,83.53
2022-12-18T05:02:17.110Z,83.35
2022-12-18T05:04:45.000Z,83.95
2022-12-18T05:07:12.570Z,84.18
2022-12-18T05:09:40.122Z,83.81
2022-12-18T05:12:08.125Z,83.66
2022-12-18T05:14:35.527Z,83.69
2022-12-18T05:17:03.900Z,83.13
2022-12-18T05:19:31.128Z,83.16
2022-12-18T05:21:58.971Z,82.98
2022-12-18T05:24:26.972Z,83.18
2022-12-18T05:26:54.866Z,82.92
2022-12-18T05:29:22.863Z,82.97
2022-12-18T05:31:50.091Z,82.68
2022-12-18T05:34:18.063Z,82.41
2022-12-18T05:36:45.745Z,82.55
2022-12-18T05:39:13.167Z,82.35
2022-12-18T05:41:41.144Z,81.98
2022-12-18T05:44:09.068Z,82.79
2022-12-18T05:46:37.803Z,83.19
2022-12-18T05:49:05.165Z,83.34
2022-12-18T05:51:33.072Z,83.58
2022-12-18T05:54:00.947Z,83.48
2022-12-18T05:56:28.157Z,83.09
2022-12-18T05:58:56.469Z,82.43
2022-12-18T06:01:28.062Z,81.99
2022-12-18T06:03:56.626Z,81.75
2022-12-18T06:06:26.896Z,81.37
2022-12-18T06:08:54.992Z,81.77
2022-12-18T06:11:24.891Z,81.71
2022-12-18T06:13:58.161Z,82.10
2022-12-18T06:16:30.207Z,81.69
2022-12-18T06:19:02.897Z,81.01
2022-12-18T06:21:31.620Z,80.88
2022-12-18T06:24:00.046Z,81.31
2022-12-18T06:26:28.699Z,81.98
2022-12-18T06:28:56.928Z,82.50
2022-12-18T06:31:25.544Z,82.48
2022-12-18T06:33:53.174Z,83.00
2022-12-18T06:36:22.178Z,82.83
2022-12-18T06:38:49.206Z,82.86
2022-12-18T06:41:21.717Z,82.48
2022-12-18T06:43:49.181Z,81.55
2022-12-18T06:46:16.395Z,81.69
2022-12-18T06:48:44.210Z,81.78
2022-12-18T06:51:12.184Z,82.66
2022-12-18T06:53:40.452Z,82.42
2022-12-18T06:56:10.623Z,82.55
2022-12-18T06:58:39.014Z,82.61
2022-12-18T07:01:09.115Z,82.71
2022-12-18T07:03:37.470Z,82.46
2022-12-18T07:06:05.120Z,82.03
2022-12-18T07:08:33.193Z,81.91
2022-12-18T07:11:04.194Z,82.14
2022-12-18T07:13:31.939Z,81.36
2022-12-18T07:16:22.357Z,80.56
2022-12-18T07:18:52.198Z,80.19
2022-12-18T07:21:20.947Z,79.97
2022-12-18T07:23:49.447Z,79.48
2022-12-18T07:26:19.224Z,78.91
2022-12-18T07:28:47.017Z,78.14
2022-12-18T07:31:20.302Z,78.20
2022-12-18T07:33:49.090Z,76.86
2022-12-18T07:36:16.790Z,75.54
2022-12-18T07:38:44.245Z,74.40
2022-12-18T07:41:13.885Z,72.58
2022-12-18T07:43:42.625Z,72.39
2022-12-18T07:46:11.018Z,70.65
2022-12-18T07:48:45.219Z,68.87
2022-12-18T07:51:18.114Z,68.03
2022-12-18T07:53:46.216Z,66.31
2022-12-18T07:56:31.552Z,64.06
2022-12-18T07:59:00.279Z,63.48
2022-12-18T08:01:28.884Z,61.26
2022-12-18T08:03:56.943Z,59.81
2022-12-18T08:06:24.844Z,59.21
2022-12-18T08:08:55.992Z,57.10
2022-12-18T08:11:25.105Z,56.27
2022-12-18T08:13:53.226Z,53.90
2022-12-18T08:16:21.279Z,54.11
2022-12-18T08:18:49.590Z,55.81
2022-12-18T08:21:24.167Z,53.55
2022-12-18T08:23:52.892Z,52.37
2022-12-18T08:26:21.088Z,52.20
2022-12-18T08:28:49.911Z,51.82
2022-12-18T08:31:19.385Z,51.12
2022-12-18T08:33:47.259Z,49.07
2022-12-18T08:36:14.710Z,47.81
2022-12-18T08:38:42.389Z,47.37
2022-12-18T08:41:12.246Z,47.93
2022-12-18T08:43:58.624Z,46.51
2022-12-18T08:46:28.315Z,47.10
2022-12-18T08:48:57.158Z,46.51
2022-12-18T08:51:24.491Z,45.07
2022-12-18T08:53:52.243Z,45.84
2022-12-18T08:56:20.245Z,44.76
2022-12-18T08:58:48.251Z,44.01
2022-12-18T09:01:16.302Z,44.04
2022-12-18T09:03:44.115Z,44.33
2022-12-18T09:06:16.019Z,44.18
2022-12-18T09:08:45.180Z,43.81
2022-12-18T09:11:24.272Z,43.40
2022-12-18T09:13:52.253Z,43.41
2022-12-18T09:16:21.150Z,43.36
2022-12-18T09:18:49.028Z,42.73
2022-12-18T09:21:21.174Z,42.73
2022-12-18T09:23:52.280Z,42.30
2022-12-18T09:26:20.282Z,42.06
2022-12-18T09:28:47.844Z,41.32
2022-12-18T09:31:15.359Z,40.68
2022-12-18T09:33:43.183Z,40.76
2022-12-18T09:36:11.429Z,39.14
2022-12-18T09:38:39.438Z,38.46
2022-12-18T09:41:17.290Z,37.70
2022-12-18T09:43:49.019Z,37.69
2022-12-18T09:46:22.238Z,37.70
2022-12-18T09:48:51.758Z,36.62
2022-12-18T09:51:31.296Z,36.52
2022-12-18T09:54:03.192Z,37.55
2022-12-18T09:56:33.522Z,37.49
2022-12-18T09:59:02.301Z,36.27
2022-12-18T10:01:41.538Z,35.09
2022-12-18T10:04:11.590Z,33.96
2022-12-18T10:06:48.061Z,33.58
2022-12-18T10:09:39.050Z,33.25
2022-12-18T10:12:14.310Z,32.59
2022-12-18T10:14:44.206Z,31.53
2022-12-18T10:17:41.133Z,31.21
2022-12-18T10:20:23.854Z,30.98
2022-12-18T10:22:58.315Z,30.83
2022-12-18T10:25:30.750Z,30.07
2022-12-18T10:28:01.784Z,29.61
2022-12-18T10:30:29.310Z,29.22
2022-12-18T10:33:02.789Z,29.65
2022-12-18T10:35:30.029Z,29.04
2022-12-18T10:38:02.332Z,29.40
2022-12-18T10:40:30.332Z,28.86
2022-12-18T10:43:13.308Z,28.28
2022-12-18T10:45:42.229Z,28.58
2022-12-18T10:48:22.335Z,28.58
2022-12-18T10:53:39.335Z,28.26
2022-12-18T10:56:08.344Z,28.90
2022-12-18T10:58:38.235Z,28.99
2022-12-18T11:01:17.786Z,28.69
2022-12-18T11:03:51.329Z,28.79
2022-12-18T11:06:23.243Z,28.60
2022-12-18T11:09:19.344Z,27.51
2022-12-18T11:11:55.346Z,26.92
2022-12-18T11:14:33.150Z,27.26
2022-12-18T11:19:58.794Z,26.53
2022-12-18T11:22:37.245Z,25.17
2022-12-18T11:25:36.040Z,25.49
2022-12-18T11:28:33.278Z,25.66
2022-12-18T11:31:23.600Z,25.50
2022-12-18T11:36:49.777Z,25.56
2022-12-18T11:39:33.252Z,25.36
2022-12-18T11:42:12.260Z,25.53
2022-12-18T11:44:52.273Z,25.08
2022-12-18T11:47:38.368Z,25.17
2022-12-18T11:50:15.393Z,25.31
2022-12-18T11:52:43.477Z,24.73
2022-12-18T11:55:17.373Z,26.31
2022-12-18T11:58:03.377Z,26.83
2022-12-18T12:00:31.376Z,25.82
2022-12-18T12:03:02.034Z,25.50
2022-12-18T12:06:00.272Z,24.86
2022-12-18T12:08:53.278Z,24.66
2022-12-18T12:11:36.214Z,24.89
2022-12-18T12:14:06.383Z,25.41
2022-12-18T12:16:55.159Z,25.51
2022-12-18T12:19:35.178Z,24.90
2022-12-18T12:22:18.013Z,24.50
2022-12-18T12:24:48.285Z,24.53
2022-12-18T12:27:28.403Z,24.27
2022-12-18T12:30:04.167Z,24.34
2022-12-18T12:32:43.873Z,24.06
2022-12-18T12:35:38.398Z,24.45
2022-12-18T12:38:20.400Z,24.68
2022-12-18T12:41:03.088Z,25.12
2022-12-18T12:43:34.174Z,26.18
2022-12-18T12:46:09.428Z,26.38
2022-12-18T12:48:40.115Z,27.23
2022-12-18T12:51:13.339Z,28.33
2022-12-18T12:53:42.776Z,28.60
2022-12-18T12:56:13.410Z,30.33
2022-12-18T12:59:03.074Z,30.52
2022-12-18T13:01:53.881Z,31.92
2022-12-18T13:04:38.311Z,32.07
2022-12-18T13:07:18.240Z,32.14
2022-12-18T13:10:21.187Z,32.29
2022-12-18T13:13:07.261Z,34.40
2022-12-18T13:15:47.012Z,34.33
2022-12-18T13:18:23.521Z,35.74
2022-12-18T13:20:58.334Z,36.01
2022-12-18T13:23:35.199Z,36.96
2022-12-18T13:26:12.188Z,38.49
2022-12-18T13:28:49.198Z,38.15
2022-12-18T13:31:43.535Z,37.03
2022-12-18T13:34:26.314Z,38.17
2022-12-18T13:36:57.201Z,38.47
2022-12-18T13:39:30.314Z,39.39
2022-12-18T13:42:07.919Z,39.48
2022-12-18T13:44:41.616Z,41.12
2022-12-18T13:47:39.230Z,43.94
2022-12-18T13:50:29.731Z,44.74
2022-12-18T13:52:59.925Z,45.23
2022-12-18T13:55:27.447Z,45.83
2022-12-18T13:58:06.291Z,47.94
2022-12-18T14:00:34.391Z,49.53
2022-12-18T14:03:02.628Z,50.35
2022-12-18T14:05:36.394Z,50.43
2022-12-18T14:08:09.488Z,51.15
2022-12-18T14:10:48.699Z,49.79
2022-12-18T14:13:24.439Z,51.72
2022-12-18T14:15:52.493Z,53.37
2022-12-18T14:18:23.483Z,53.68
2022-12-18T14:20:54.568Z,54.08
2022-12-18T14:23:34.498Z,55.69
2022-12-18T14:26:06.194Z,56.54
2022-12-18T14:28:33.880Z,57.35
2022-12-18T14:31:01.608Z,57.15
2022-12-18T14:33:29.504Z,58.30
2022-12-18T14:36:02.473Z,57.58
2022-12-18T14:38:36.321Z,56.85
2022-12-18T14:41:07.418Z,59.35
2022-12-18T14:43:37.029Z,61.25
2022-12-18T14:46:26.153Z,61.51
2022-12-18T14:48:54.422Z,61.27
2022-12-18T14:51:27.518Z,61.69
2022-12-18T14:54:04.971Z,62.21
2022-12-18T14:56:37.380Z,63.10
2022-12-18T14:59:23.813Z,63.69
2022-12-18T15:02:24.687Z,64.53
2022-12-18T15:05:17.442Z,64.63
2022-12-18T15:07:47.341Z,65.33
2022-12-18T15:10:29.436Z,66.02
2022-12-18T15:12:57.254Z,66.68
2022-12-18T15:15:40.475Z,67.02
2022-12-18T15:18:14.421Z,68.22
2022-12-18T15:20:56.452Z,68.15
2022-12-18T15:23:36.439Z,68.92
2022-12-18T15:26:05.537Z,68.99
2022-12-18T15:28:44.991Z,70.14
2022-12-18T15:31:17.027Z,70.32
2022-12-18T15:33:51.460Z,70.05
2022-12-18T15:36:21.427Z,71.09
2022-12-18T15:38:56.067Z,71.20
2022-12-18T15:41:29.449Z,71.54
2022-12-18T15:43:57.471Z,71.52
2022-12-18T15:46:26.498Z,72.67
2022-12-18T15:49:01.471Z,72.90
2022-12-18T15:51:32.451Z,72.24
2022-12-18T15:54:01.475Z,72.70
2022-12-18T15:56:48.054Z,73.35
2022-12-18T15:59:17.944Z,73.57
2022-12-18T16:01:48.588Z,74.07
2022-12-18T16:04:17.839Z,74.80
2022-12-18T16:07:13.239Z,74.33
2022-12-18T16:09:32.675Z,74.16
2022-12-18T16:12:00.493Z,74.08
2022-12-18T16:14:30.427Z,74.32
2022-12-18T16:17:06.433Z,74.37
2022-12-18T16:19:34.393Z,74.39
2022-12-18T16:22:02.997Z,74.70
2022-12-18T16:24:32.499Z,75.12
2022-12-18T16:27:01.502Z,75.11
2022-12-18T16:29:30.501Z,75.89
2022-12-18T16:31:59.542Z,75.85
2022-12-18T16:34:35.480Z,75.11
2022-12-18T16:37:06.326Z,75.80
2022-12-18T16:39:38.232Z,76.10
2022-12-18T16:42:13.754Z,76.00
2022-12-18T16:44:41.519Z,76.02
2022-12-18T16:47:09.670Z,76.67
2022-12-18T16:49:39.519Z,76.72
2022-12-18T16:52:08.382Z,76.35
2022-12-18T16:54:36.975Z,76.69
2022-12-18T16:57:08.383Z,76.44
2022-12-18T16:59:35.618Z,76.69
2022-12-18T17:02:07.765Z,76.69
2022-12-18T17:04:35.527Z,76.80
2022-12-18T17:07:05.058Z,77.12
2022-12-18T17:09:32.681Z,77.09
2022-12-18T17:12:04.179Z,77.10
2022-12-18T17:14:32.606Z,77.17
2022-12-18T17:17:20.318Z,77.24
2022-12-18T17:19:48.435Z,77.32
2022-12-18T17:22:15.609Z,77.32
2022-12-18T17:24:43.440Z,78.07
2022-12-18T17:27:11.308Z,78.13
2022-12-18T17:29:43.887Z,77.82
2022-12-18T17:32:14.617Z,77.86
2022-12-18T17:34:42.449Z,77.24
2022-12-18T17:37:10.237Z,77.57
2022-12-18T17:39:37.802Z,77.90
2022-12-18T17:42:05.556Z,78.14
2022-12-18T17:44:34.558Z,78.51
2022-12-18T17:47:02.720Z,78.95
2022-12-18T17:49:31.316Z,78.99
2022-12-18T17:51:58.631Z,79.32
2022-12-18T17:54:26.565Z,78.97
2022-12-18T17:56:54.069Z,79.17
2022-12-18T17:59:21.634Z,79.36
2022-12-18T18:01:49.650Z,79.61
2022-12-18T18:04:17.657Z,78.96
2022-12-18T18:06:45.578Z,79.29
2022-12-18T18:09:16.999Z,79.20
2022-12-18T18:12:05.420Z,79.18
2022-12-18T18:14:33.643Z,78.79
2022-12-18T18:17:04.636Z,78.13
2022-12-18T18:19:33.661Z,78.83
2022-12-18T18:22:01.777Z,78.65
2022-12-18T18:24:31.096Z,78.58
2022-12-18T18:27:01.589Z,79.03
2022-12-18T18:29:32.593Z,78.87
2022-12-18T18:32:00.623Z,79.06
2022-12-18T18:34:30.530Z,79.35
2022-12-18T18:36:57.745Z,79.32
2022-12-18T18:39:25.698Z,79.15
2022-12-18T18:41:53.581Z,78.71
2022-12-18T18:44:26.141Z,78.85
2022-12-18T18:46:57.668Z,79.24
2022-12-18T18:49:28.021Z,79.63
2022-12-18T18:51:56.788Z,78.99
2022-12-18T18:54:25.620Z,79.57
2022-12-18T18:57:19.498Z,79.65
2022-12-18T18:59:41.543Z,79.59
2022-12-18T19:02:13.778Z,79.71
2022-12-18T19:04:45.854Z,79.24
2022-12-18T19:07:28.119Z,79.35
2022-12-18T19:10:04.247Z,79.62
2022-12-18T19:12:52.350Z,79.23
2022-12-18T19:15:20.350Z,79.72
2022-12-18T19:17:48.098Z,79.74
2022-12-18T19:20:16.629Z,80.37
2022-12-18T19:22:55.040Z,79.84
2022-12-18T19:25:28.359Z,79.72
2022-12-18T19:28:08.271Z,79.74
2022-12-18T19:30:46.129Z,79.36
2022-12-18T19:33:41.585Z,78.95
2022-12-18T19:36:01.928Z,79.96
2022-12-18T19:38:31.696Z,81.31
2022-12-18T19:41:00.485Z,80.30
2022-12-18T19:43:28.488Z,80.07
2022-12-18T19:45:57.528Z,80.24
2022-12-18T19:48:24.786Z,81.24
2022-12-18T19:50:52.495Z,81.83
2022-12-18T19:53:20.383Z,81.71
2022-12-18T19:55:48.101Z,81.05
2022-12-18T19:58:17.035Z,80.38
2022-12-18T20:00:44.350Z,81.66
2022-12-18T20:03:23.319Z,80.77
2022-12-18T20:05:54.802Z,80.02
2022-12-18T20:08:21.849Z,79.80
2022-12-18T20:10:49.290Z,80.22
2022-12-18T20:13:17.148Z,80.49
2022-12-18T20:15:45.444Z,80.69
2022-12-18T20:18:13.512Z,80.31
2022-12-18T20:20:40.802Z,80.38
2022-12-18T20:23:08.671Z,80.11
2022-12-18T20:25:36.518Z,80.42
2022-12-18T20:28:04.521Z,80.52
2022-12-18T20:30:32.531Z,81.56
2022-12-18T20:33:00.381Z,80.48
2022-12-18T20:35:29.160Z,80.75
2022-12-18T20:37:57.527Z,81.09
2022-12-18T20:40:26.485Z,80.08
2022-12-18T20:42:54.531Z,80.15
2022-12-18T20:45:22.688Z,80.63
2022-12-18T20:47:50.387Z,80.56
2022-12-18T20:50:18.167Z,80.31
2022-12-18T20:52:46.170Z,79.98
2022-12-18T20:55:14.170Z,80.59
2022-12-18T20:57:41.807Z,80.65
2022-12-18T21:00:11.305Z,80.23
2022-12-18T21:02:39.826Z,80.31
2022-12-18T21:05:07.955Z,80.37
2022-12-18T21:07:35.705Z,80.24
2022-12-18T21:10:04.550Z,80.50
2022-12-18T21:12:40.550Z,79.79
2022-12-18T21:15:17.009Z,79.89
2022-12-18T21:17:45.391Z,79.88
2022-12-18T21:20:17.403Z,79.99
2022-12-18T21:22:45.561Z,80.66
2022-12-18T21:25:13.401Z,80.50
2022-12-18T21:27:41.184Z,81.11
2022-12-18T21:30:09.186Z,80.66
2022-12-18T21:32:37.187Z,80.76
2022-12-18T21:35:05.568Z,80.38
2022-12-18T21:37:33.571Z,79.97
2022-12-18T21:40:01.407Z,80.15
2022-12-18T21:42:47.378Z,80.69
2022-12-18T21:45:15.409Z,81.37
2022-12-18T21:47:42.869Z,81.23
2022-12-18T21:50:10.412Z,80.91
2022-12-18T21:52:37.965Z,80.26
2022-12-18T21:55:09.547Z,80.89
2022-12-18T21:57:38.934Z,81.77
2022-12-18T22:00:07.941Z,80.62
2022-12-18T22:02:35.783Z,80.80
2022-12-18T22:05:03.744Z,80.37
2022-12-18T22:07:32.019Z,80.59
2022-12-18T22:09:59.748Z,80.60
2022-12-18T22:12:43.125Z,81.06
2022-12-18T22:15:13.202Z,80.66
2022-12-18T22:17:49.422Z,80.38
2022-12-18T22:20:17.641Z,80.47
2022-12-18T22:22:48.429Z,79.69
2022-12-18T22:25:16.426Z,80.07
2022-12-18T22:28:04.402Z,80.27
2022-12-18T22:30:32.214Z,80.62
2022-12-18T22:33:00.411Z,80.91
2022-12-18T22:35:28.429Z,81.14
2022-12-18T22:37:56.136Z,81.07
2022-12-18T22:40:25.800Z,81.30
2022-12-18T22:42:54.772Z,80.42
2022-12-18T22:45:22.431Z,80.32
2022-12-18T22:47:49.624Z,80.56
2022-12-18T22:50:17.224Z,80.64
2022-12-18T22:52:46.437Z,80.92
2022-12-18T22:55:14.227Z,80.59
2022-12-18T22:57:48.597Z,80.56
2022-12-18T23:00:20.765Z,81.28
2022-12-18T23:03:00.371Z,82.51
2022-12-18T23:05:29.898Z,82.46
2022-12-18T23:07:57.442Z,81.85
2022-12-18T23:10:25.237Z,80.91
2022-12-18T23:12:52.604Z,80.84
2022-12-18T23:15:24.860Z,80.54
2022-12-18T23:17:57.026Z,81.86
2022-12-18T23:20:25.240Z,81.28
2022-12-18T23:22:53.473Z,80.78
2022-12-18T23:25:20.918Z,80.66
2022-12-18T23:27:48.449Z,80.02
2022-12-18T23:30:16.240Z,79.42
2022-12-18T23:32:43.802Z,79.77
2022-12-18T23:35:11.451Z,79.54
2022-12-18T23:37:58.553Z,80.37
2022-12-18T23:40:27.659Z,80.15
2022-12-18T23:42:55.803Z,79.94
2022-12-18T23:45:23.483Z,80.76
2022-12-18T23:47:51.408Z,80.61
2022-12-18T23:50:19.484Z,81.39
2022-12-18T23:52:53.253Z,81.24
2022-12-18T23:55:20.670Z,81.29
2022-12-18T23:57:48.186Z,80.69
